Time;durP1;ratioP1;P1;durP2;ratioP2;P2;SDS_P1;SDS_P2;PMS_P1;PMS_P2;Temp;Humidity;BMP_temperature;BMP_pressure;BME280_temperature;BME280_humidity;BME280_pressure;Samples;Min_cycle;Max_cycle;Signal;HPM_P1;HPM_P2
2021/09/22 00:00:49;;;;;;;4.20;3.47;;;;;21.10;101875.00;;;;2061962;28;20630;-56
2021/09/22 00:01:50;;;;;;;4.30;3.70;;;;;21.10;101870.00;;;;2062308;28;20218;-57
2021/09/22 00:02:50;;;;;;;3.90;3.50;;;;;21.20;101876.00;;;;2062379;28;20233;-57
2021/09/22 00:03:50;;;;;;;4.17;3.77;;;;;21.20;101887.00;;;;2057110;28;20214;-57
2021/09/22 00:04:51;;;;;;;6.73;3.50;;;;;21.20;101874.00;;;;2069092;28;20229;-56
2021/09/22 00:05:53;;;;;;;6.47;3.60;;;;;21.20;101875.00;;;;2070238;28;20277;-57
2021/09/22 00:06:54;;;;;;;4.72;3.30;;;;;21.20;101865.00;;;;2060836;28;20223;-57
2021/09/22 00:07:54;;;;;;;8.70;3.67;;;;;21.10;101873.00;;;;2066232;28;20286;-55
2021/09/22 00:08:54;;;;;;;4.00;3.37;;;;;21.20;101876.00;;;;2061188;28;20476;-55
2021/09/22 00:09:54;;;;;;;4.03;3.67;;;;;21.20;101880.00;;;;2056171;28;20223;-57
2021/09/22 00:10:55;;;;;;;4.70;4.20;;;;;21.20;101875.00;;;;2065449;28;20222;-56
2021/09/22 00:11:55;;;;;;;4.10;3.30;;;;;21.10;101870.00;;;;2071963;28;20225;-56
2021/09/22 00:12:56;;;;;;;6.37;3.63;;;;;21.10;101870.00;;;;2071944;28;20214;-56
2021/09/22 00:13:56;;;;;;;5.03;3.60;;;;;21.10;101871.00;;;;2071424;28;20219;-56
2021/09/22 00:14:57;;;;;;;3.70;3.40;;;;;21.20;101872.00;;;;2063191;28;20659;-56
2021/09/22 00:15:57;;;;;;;4.00;3.57;;;;;21.10;101870.00;;;;2063148;28;20253;-56
2021/09/22 00:16:58;;;;;;;3.67;3.37;;;;;21.20;101865.00;;;;2067083;28;20308;-56
2021/09/22 00:17:58;;;;;;;3.67;3.37;;;;;21.20;101864.00;;;;2071166;28;20214;-56
2021/09/22 00:18:58;;;;;;;4.10;3.70;;;;;21.20;101877.00;;;;2070705;28;20221;-55
2021/09/22 00:20:00;;;;;;;3.50;3.20;;;;;21.20;101864.00;;;;2071832;28;20245;-55
2021/09/22 00:21:00;;;;;;;3.80;3.50;;;;;21.20;101882.00;;;;2070978;28;20870;-57
2021/09/22 00:22:00;;;;;;;4.10;3.70;;;;;21.20;101879.00;;;;2063847;28;20226;-56
2021/09/22 00:23:01;;;;;;;4.07;3.30;;;;;21.20;101875.00;;;;2063565;28;20702;-57
2021/09/22 00:24:02;;;;;;;4.10;3.70;;;;;21.20;101891.00;;;;2063573;28;20242;-57
2021/09/22 00:25:04;;;;;;;3.70;3.40;;;;;21.20;101885.00;;;;2063317;28;20223;-57
2021/09/22 00:26:05;;;;;;;3.53;3.22;;;;;21.20;101876.00;;;;2063063;28;20218;-55
2021/09/22 00:27:05;;;;;;;3.30;3.00;;;;;21.10;101879.00;;;;2062798;28;20215;-56
2021/09/22 00:28:05;;;;;;;3.47;3.17;;;;;21.20;101882.00;;;;2063479;28;20214;-56
2021/09/22 00:29:06;;;;;;;4.50;3.60;;;;;21.10;101882.00;;;;2062604;28;20215;-56
2021/09/22 00:30:07;;;;;;;4.70;3.30;;;;;21.20;101887.00;;;;2063802;28;20696;-57
2021/09/22 00:31:08;;;;;;;3.22;2.90;;;;;21.20;101882.00;;;;2063832;28;20221;-57
2021/09/22 00:32:08;;;;;;;3.83;3.40;;;;;21.20;101880.00;;;;2063749;28;20214;-57
2021/09/22 00:33:09;;;;;;;3.70;3.30;;;;;21.20;101881.00;;;;2064895;28;20219;-56
2021/09/22 00:34:11;;;;;;;4.20;3.63;;;;;21.10;101879.00;;;;2071281;28;20268;-57
2021/09/22 00:35:11;;;;;;;3.37;3.07;;;;;21.20;101872.00;;;;2071861;28;20271;-56
2021/09/22 00:36:11;;;;;;;4.00;3.57;;;;;21.20;101879.00;;;;2064131;28;20787;-57
2021/09/22 00:37:12;;;;;;;3.77;3.37;;;;;21.20;101877.00;;;;2063005;28;20246;-57
2021/09/22 00:38:13;;;;;;;3.53;3.23;;;;;21.10;101874.00;;;;2062475;28;20234;-56
2021/09/22 00:39:15;;;;;;;3.83;3.43;;;;;21.20;101878.00;;;;2062483;28;20661;-56
2021/09/22 00:40:15;;;;;;;3.08;2.78;;;;;21.20;101872.00;;;;2054194;28;20463;-55
2021/09/22 00:41:16;;;;;;;3.07;2.87;;;;;21.10;101875.00;;;;2055215;28;20308;-55
2021/09/22 00:42:17;;;;;;;4.27;3.87;;;;;21.20;101860.00;;;;2055646;28;20199;-57
2021/09/22 00:43:17;;;;;;;3.70;3.30;;;;;21.10;101863.00;;;;2069376;28;20219;-56
2021/09/22 00:44:18;;;;;;;3.63;3.33;;;;;21.10;101861.00;;;;2066302;28;20264;-56
2021/09/22 00:45:18;;;;;;;3.30;3.00;;;;;21.10;101871.00;;;;2063508;28;20211;-57
2021/09/22 00:46:19;;;;;;;3.83;3.43;;;;;21.10;101861.00;;;;2063451;28;20461;-57
2021/09/22 00:47:19;;;;;;;3.30;3.00;;;;;21.10;101863.00;;;;2067551;28;20690;-56
2021/09/22 00:48:21;;;;;;;5.30;3.10;;;;;21.10;101872.00;;;;2071590;28;20220;-55
2021/09/22 00:49:22;;;;;;;3.90;3.50;;;;;21.10;101870.00;;;;2070085;28;20221;-56
2021/09/22 00:50:22;;;;;;;3.30;3.00;;;;;21.10;101869.00;;;;2066713;28;20592;-57
2021/09/22 00:51:23;;;;;;;3.90;3.13;;;;;21.10;101861.00;;;;2071597;28;20207;-56
2021/09/22 00:52:23;;;;;;;3.30;3.10;;;;;21.10;101871.00;;;;2071635;28;20296;-56
2021/09/22 00:53:23;;;;;;;5.60;3.20;;;;;21.10;101859.00;;;;2071587;28;20221;-54
2021/09/22 00:54:24;;;;;;;3.23;2.93;;;;;21.20;101862.00;;;;2067642;28;20236;-55
2021/09/22 00:55:24;;;;;;;3.20;2.90;;;;;21.10;101857.00;;;;2054522;28;20227;-56
2021/09/22 00:56:25;;;;;;;5.80;3.40;;;;;21.10;101863.00;;;;2062769;28;20296;-58
2021/09/22 00:57:26;;;;;;;3.20;2.90;;;;;21.10;101856.00;;;;2071565;28;20305;-56
2021/09/22 00:58:26;;;;;;;4.18;2.88;;;;;21.20;101865.00;;;;2071618;28;20705;-56
2021/09/22 00:59:27;;;;;;;5.27;3.17;;;;;21.10;101862.00;;;;2070076;28;20225;-58
2021/09/22 01:00:28;;;;;;;3.53;3.20;;;;;21.10;101855.00;;;;2071747;28;20790;-58
2021/09/22 01:01:28;;;;;;;5.27;3.10;;;;;21.10;101863.00;;;;2071265;28;20218;-56
2021/09/22 01:02:28;;;;;;;4.03;3.10;;;;;21.10;101854.00;;;;2070201;28;21002;-55
2021/09/22 01:03:29;;;;;;;3.50;3.20;;;;;21.00;101853.00;;;;2071491;28;20289;-56
2021/09/22 01:04:29;;;;;;;3.77;3.37;;;;;21.10;101861.00;;;;2071234;28;20218;-58
2021/09/22 01:05:30;;;;;;;3.70;3.40;;;;;21.10;101860.00;;;;2070646;28;20699;-57
2021/09/22 01:06:30;;;;;;;3.70;3.17;;;;;21.10;101851.00;;;;2064630;28;20234;-58
2021/09/22 01:07:31;;;;;;;4.30;3.03;;;;;21.10;101849.00;;;;2065308;28;20267;-57
2021/09/22 01:08:31;;;;;;;3.57;3.27;;;;;21.10;101844.00;;;;2054625;28;20285;-57
2021/09/22 01:09:32;;;;;;;4.03;3.13;;;;;21.10;101846.00;;;;2053538;28;20266;-57
2021/09/22 01:10:32;;;;;;;3.90;2.90;;;;;21.10;101856.00;;;;2062574;28;20615;-55
2021/09/22 01:11:34;;;;;;;3.63;3.23;;;;;21.10;101844.00;;;;2062845;28;20218;-58
2021/09/22 01:12:35;;;;;;;2.78;2.58;;;;;21.10;101844.00;;;;2062424;28;20329;-54
2021/09/22 01:13:36;;;;;;;3.03;2.80;;;;;21.10;101845.00;;;;2062630;28;20821;-58
2021/09/22 01:14:36;;;;;;;3.35;3.05;;;;;21.10;101843.00;;;;2063316;28;20630;-56
2021/09/22 01:15:38;;;;;;;5.13;3.17;;;;;21.10;101849.00;;;;2069126;28;20218;-56
2021/09/22 01:16:42;;;;;;;3.17;2.85;;;;;21.00;101851.00;;;;2071226;28;20225;-56
2021/09/22 01:17:42;;;;;;;4.95;3.30;;;;;21.00;101847.00;;;;2069468;28;20218;-56
2021/09/22 01:18:43;;;;;;;3.70;2.70;;;;;21.00;101847.00;;;;2070416;28;20713;-57
2021/09/22 01:19:43;;;;;;;2.80;2.60;;;;;21.00;101853.00;;;;2071107;28;20210;-56
2021/09/22 01:20:55;;;;;;;3.60;3.30;;;;;21.10;101852.00;;;;2071263;28;20221;-55
2021/09/22 01:21:55;;;;;;;3.40;3.10;;;;;21.10;101851.00;;;;2070260;28;20214;-55
2021/09/22 01:22:56;;;;;;;3.83;3.33;;;;;21.10;101850.00;;;;2070583;28;20847;-57
2021/09/22 01:23:56;;;;;;;4.30;3.20;;;;;21.10;101849.00;;;;2071087;28;20222;-54
2021/09/22 01:24:57;;;;;;;3.33;3.03;;;;;21.10;101853.00;;;;2071115;28;20449;-57
2021/09/22 01:25:57;;;;;;;2.90;2.70;;;;;21.10;101847.00;;;;2071325;28;20218;-57
2021/09/22 01:26:58;;;;;;;3.23;2.70;;;;;21.00;101857.00;;;;2071383;28;20592;-57
2021/09/22 01:27:59;;;;;;;3.30;2.87;;;;;21.10;101854.00;;;;2071400;28;20218;-57
2021/09/22 01:29:00;;;;;;;2.70;2.50;;;;;21.10;101858.00;;;;2068990;28;20567;-58
2021/09/22 01:30:00;;;;;;;3.17;2.87;;;;;21.00;101854.00;;;;2070988;28;20313;-57
2021/09/22 01:31:01;;;;;;;3.67;3.17;;;;;21.10;101854.00;;;;2071469;28;20567;-56
2021/09/22 01:32:01;;;;;;;3.40;2.70;;;;;21.00;101840.00;;;;2070458;28;20222;-57
2021/09/22 01:33:04;;;;;;;3.90;3.30;;;;;21.00;101852.00;;;;2066676;28;20642;-57
2021/09/22 01:34:05;;;;;;;4.05;3.40;;;;;21.00;101849.00;;;;2063035;28;20219;-57
2021/09/22 01:35:06;;;;;;;3.40;3.10;;;;;21.00;101852.00;;;;2063114;28;20237;-57
2021/09/22 01:36:07;;;;;;;3.60;3.17;;;;;21.00;101849.00;;;;2063546;28;20692;-56
2021/09/22 01:37:07;;;;;;;3.13;2.83;;;;;21.00;101849.00;;;;2054129;28;20786;-56
2021/09/22 01:38:11;;;;;;;3.00;2.77;;;;;21.00;101839.00;;;;2054478;28;20238;-56
2021/09/22 01:39:11;;;;;;;3.17;2.90;;;;;21.00;101836.00;;;;2061623;28;20218;-55
2021/09/22 01:40:12;;;;;;;3.40;3.07;;;;;21.00;101841.00;;;;2062880;28;20630;-58
2021/09/22 01:41:12;;;;;;;3.30;3.00;;;;;21.00;101845.00;;;;2063120;28;20303;-56
2021/09/22 01:42:13;;;;;;;3.37;2.97;;;;;21.00;101842.00;;;;2063280;28;20290;-58
2021/09/22 01:43:13;;;;;;;2.80;2.53;;;;;21.00;101840.00;;;;2063192;28;20578;-56
2021/09/22 01:44:13;;;;;;;3.60;3.30;;;;;21.00;101850.00;;;;2062559;28;20362;-56
2021/09/22 01:45:15;;;;;;;3.20;2.90;;;;;21.00;101840.00;;;;2063092;28;20215;-57
2021/09/22 01:46:15;;;;;;;4.10;2.53;;;;;21.00;101850.00;;;;2063069;28;20215;-56
2021/09/22 01:47:16;;;;;;;2.63;2.43;;;;;21.00;101849.00;;;;2062670;28;20211;-56
2021/09/22 01:48:16;;;;;;;3.43;2.90;;;;;21.00;101839.00;;;;2062994;28;20203;-58
2021/09/22 01:49:23;;;;;;;3.20;2.90;;;;;21.00;101840.00;;;;2061887;28;20840;-59
2021/09/22 01:50:23;;;;;;;2.92;2.63;;;;;21.00;101842.00;;;;2065377;28;20621;-57
2021/09/22 01:51:24;;;;;;;2.80;2.60;;;;;21.00;101844.00;;;;2071013;28;20211;-57
2021/09/22 01:52:24;;;;;;;3.30;2.80;;;;;21.00;101840.00;;;;2071106;28;20207;-57
2021/09/22 01:53:25;;;;;;;3.40;3.03;;;;;21.00;101845.00;;;;2071404;28;20202;-58
2021/09/22 01:54:25;;;;;;;3.20;2.90;;;;;20.80;101841.00;;;;2070944;28;20225;-57
2021/09/22 01:55:26;;;;;;;3.27;2.97;;;;;21.00;101839.00;;;;2070051;28;20226;-56
2021/09/22 01:56:26;;;;;;;3.17;2.87;;;;;21.00;101839.00;;;;2071281;28;20211;-56
2021/09/22 01:57:26;;;;;;;2.83;2.53;;;;;21.00;101841.00;;;;2070507;28;20217;-57
2021/09/22 01:58:28;;;;;;;3.00;2.80;;;;;21.00;101838.00;;;;2071194;28;20210;-58
2021/09/22 01:59:28;;;;;;;3.15;2.80;;;;;21.00;101840.00;;;;2069618;28;20217;-57
2021/09/22 02:00:29;;;;;;;3.97;3.37;;;;;21.00;101836.00;;;;2070874;28;20238;-57
2021/09/22 02:01:29;;;;;;;3.57;2.83;;;;;21.00;101828.00;;;;2071175;28;20214;-57
2021/09/22 02:02:31;;;;;;;3.03;2.83;;;;;21.00;101831.00;;;;2071115;28;20206;-56
2021/09/22 02:03:31;;;;;;;4.72;2.88;;;;;21.00;101835.00;;;;2071120;28;20265;-56
2021/09/22 02:04:31;;;;;;;3.93;2.60;;;;;21.00;101827.00;;;;2071081;28;20206;-58
2021/09/22 02:05:32;;;;;;;3.33;3.10;;;;;21.00;101830.00;;;;2069603;28;20294;-55
2021/09/22 02:06:32;;;;;;;3.00;2.70;;;;;21.00;101828.00;;;;2062491;28;20758;-56
2021/09/22 02:07:33;;;;;;;3.30;3.00;;;;;20.90;101822.00;;;;2062468;28;20708;-55
2021/09/22 02:08:36;;;;;;;3.05;2.75;;;;;21.00;101817.00;;;;2061004;28;20734;-57
2021/09/22 02:09:37;;;;;;;2.92;2.63;;;;;21.00;101823.00;;;;2060614;28;20647;-56
2021/09/22 02:10:38;;;;;;;5.10;3.10;;;;;21.00;101823.00;;;;2062594;28;20246;-56
2021/09/22 02:11:38;;;;;;;3.20;2.50;;;;;21.00;101815.00;;;;2062629;28;20211;-58
2021/09/22 02:12:38;;;;;;;3.40;3.10;;;;;21.00;101816.00;;;;2061322;28;20373;-57
2021/09/22 02:13:39;;;;;;;3.40;2.70;;;;;21.00;101817.00;;;;2062600;28;20222;-57
2021/09/22 02:14:39;;;;;;;2.83;2.63;;;;;21.00;101815.00;;;;2061234;28;21078;-56
2021/09/22 02:15:39;;;;;;;2.80;2.60;;;;;20.90;101814.00;;;;2062887;28;20906;-57
2021/09/22 02:16:40;;;;;;;3.23;2.50;;;;;20.90;101814.00;;;;2062888;28;20577;-57
2021/09/22 02:17:40;;;;;;;2.93;2.63;;;;;20.90;101817.00;;;;2062982;28;20298;-57
2021/09/22 02:18:40;;;;;;;3.90;3.23;;;;;20.90;101805.00;;;;2062437;28;20667;-55
2021/09/22 02:19:41;;;;;;;3.07;2.87;;;;;20.90;101807.00;;;;2058058;28;20293;-56
2021/09/22 02:20:41;;;;;;;3.03;2.83;;;;;20.90;101808.00;;;;2061291;28;20222;-58
2021/09/22 02:21:42;;;;;;;2.93;2.73;;;;;20.90;101802.00;;;;2063028;28;20265;-57
2021/09/22 02:22:42;;;;;;;2.97;2.70;;;;;21.00;101804.00;;;;2062908;28;20305;-56
2021/09/22 02:23:42;;;;;;;4.07;2.80;;;;;20.90;101811.00;;;;2062780;28;20215;-57
2021/09/22 02:24:43;;;;;;;2.80;2.60;;;;;20.90;101811.00;;;;2065326;28;20729;-57
2021/09/22 02:25:44;;;;;;;3.30;3.00;;;;;20.90;101807.00;;;;2070307;28;20222;-56
2021/09/22 02:26:45;;;;;;;3.10;2.80;;;;;20.90;101810.00;;;;2071002;28;20222;-56
2021/09/22 02:27:45;;;;;;;2.60;2.40;;;;;20.90;101808.00;;;;2071030;28;20647;-56
2021/09/22 02:28:46;;;;;;;3.03;2.83;;;;;20.90;101798.00;;;;2067024;28;20221;-55
2021/09/22 02:29:47;;;;;;;2.80;2.60;;;;;20.90;101798.00;;;;2070295;28;20214;-57
2021/09/22 02:30:47;;;;;;;3.27;2.97;;;;;20.90;101803.00;;;;2069314;28;20218;-60
2021/09/22 02:31:47;;;;;;;3.07;2.80;;;;;20.90;101801.00;;;;2070641;28;20217;-60
2021/09/22 02:32:48;;;;;;;2.97;2.77;;;;;20.90;101803.00;;;;2059732;28;20223;-60
2021/09/22 02:33:48;;;;;;;2.63;2.43;;;;;20.90;101800.00;;;;2059967;28;20223;-60
2021/09/22 02:34:49;;;;;;;4.10;2.40;;;;;20.90;101804.00;;;;2065821;28;20240;-55
2021/09/22 02:35:49;;;;;;;2.67;2.47;;;;;20.90;101805.00;;;;2066485;28;20286;-58
2021/09/22 02:36:50;;;;;;;2.60;2.40;;;;;20.90;101806.00;;;;2063100;28;20207;-55
2021/09/22 02:37:50;;;;;;;2.93;2.73;;;;;20.90;101806.00;;;;2059282;28;20211;-58
2021/09/22 02:38:51;;;;;;;2.87;2.57;;;;;20.90;101807.00;;;;2061402;28;20566;-56
2021/09/22 02:39:52;;;;;;;2.50;2.30;;;;;20.90;101805.00;;;;2062658;28;20211;-56
2021/09/22 02:40:52;;;;;;;3.10;2.90;;;;;20.90;101810.00;;;;2062508;28;20365;-57
2021/09/22 02:41:53;;;;;;;3.03;2.40;;;;;20.90;101805.00;;;;2062523;28;20234;-58
2021/09/22 02:42:54;;;;;;;2.90;2.70;;;;;20.90;101810.00;;;;2062249;28;20243;-55
2021/09/22 02:43:54;;;;;;;2.57;2.37;;;;;20.90;101800.00;;;;2062426;28;20599;-55
2021/09/22 02:44:54;;;;;;;2.57;2.37;;;;;20.90;101804.00;;;;2058695;28;20223;-58
2021/09/22 02:45:55;;;;;;;2.87;2.67;;;;;20.90;101801.00;;;;2058450;28;20266;-57
2021/09/22 02:46:56;;;;;;;3.22;3.03;;;;;20.90;101808.00;;;;2060365;28;20223;-56
2021/09/22 02:47:56;;;;;;;2.93;2.73;;;;;20.90;101813.00;;;;2061996;28;20309;-57
2021/09/22 02:48:56;;;;;;;2.90;2.63;;;;;20.90;101808.00;;;;2058486;28;20223;-57
2021/09/22 02:49:57;;;;;;;3.40;2.80;;;;;20.90;101807.00;;;;2061996;28;20253;-57
2021/09/22 02:50:57;;;;;;;2.70;2.50;;;;;20.90;101809.00;;;;2062331;28;20718;-57
2021/09/22 02:51:57;;;;;;;3.40;3.10;;;;;20.90;101808.00;;;;2062185;28;20218;-56
2021/09/22 02:52:58;;;;;;;3.10;2.90;;;;;20.90;101809.00;;;;2062081;28;20242;-57
2021/09/22 02:53:58;;;;;;;3.20;2.90;;;;;20.90;101816.00;;;;2066622;28;20643;-57
2021/09/22 02:54:59;;;;;;;3.50;3.20;;;;;20.90;101811.00;;;;2064910;28;20230;-56
2021/09/22 02:55:59;;;;;;;3.33;3.03;;;;;20.90;101817.00;;;;2062370;28;20681;-57
2021/09/22 02:56:59;;;;;;;3.40;3.10;;;;;20.90;101808.00;;;;2060821;28;20226;-57
2021/09/22 02:58:00;;;;;;;3.80;3.50;;;;;20.90;101817.00;;;;2062686;28;20213;-57
2021/09/22 02:59:00;;;;;;;3.20;2.90;;;;;20.90;101815.00;;;;2060822;28;20524;-58
2021/09/22 03:00:02;;;;;;;3.07;2.77;;;;;20.90;101813.00;;;;2062053;28;20234;-57
2021/09/22 03:01:03;;;;;;;3.97;3.55;;;;;20.90;101812.00;;;;2061995;28;20219;-57
2021/09/22 03:02:03;;;;;;;3.30;3.00;;;;;20.90;101818.00;;;;2061887;28;20327;-57
2021/09/22 03:03:04;;;;;;;3.67;3.23;;;;;20.90;101808.00;;;;2061046;28;20223;-56
2021/09/22 03:04:04;;;;;;;3.50;3.20;;;;;20.90;101826.00;;;;2060573;28;20310;-57
2021/09/22 03:05:05;;;;;;;4.17;3.77;;;;;20.90;101813.00;;;;2061969;28;20257;-55
2021/09/22 03:06:06;;;;;;;3.88;3.42;;;;;20.90;101809.00;;;;2061596;28;20228;-56
2021/09/22 03:07:06;;;;;;;3.60;3.30;;;;;20.90;101807.00;;;;2062378;28;20959;-57
2021/09/22 03:08:07;;;;;;;3.43;3.10;;;;;20.80;101810.00;;;;2062416;28;20345;-57
2021/09/22 03:09:07;;;;;;;3.57;3.23;;;;;20.80;101817.00;;;;2061056;28;20227;-56
2021/09/22 03:10:08;;;;;;;3.17;2.87;;;;;20.90;101804.00;;;;2061552;28;20218;-57
2021/09/22 03:11:09;;;;;;;3.40;3.10;;;;;20.80;101798.00;;;;2061777;28;21057;-56
2021/09/22 03:12:09;;;;;;;3.93;3.60;;;;;20.90;101806.00;;;;2060968;28;20980;-57
2021/09/22 03:13:10;;;;;;;3.30;3.00;;;;;20.80;101809.00;;;;2062249;28;20298;-58
2021/09/22 03:14:10;;;;;;;3.50;3.20;;;;;20.80;101808.00;;;;2062502;28;20298;-57
2021/09/22 03:15:10;;;;;;;3.93;3.33;;;;;20.80;101809.00;;;;2062109;28;20222;-55
2021/09/22 03:16:11;;;;;;;3.40;3.10;;;;;20.90;101809.00;;;;2062461;28;20219;-57
2021/09/22 03:17:11;;;;;;;4.57;3.00;;;;;20.80;101810.00;;;;2062493;28;20215;-57
2021/09/22 03:18:11;;;;;;;3.13;2.70;;;;;20.90;101811.00;;;;2062415;28;20874;-57
2021/09/22 03:19:12;;;;;;;3.40;3.13;;;;;20.80;101811.00;;;;2060574;28;20210;-57
2021/09/22 03:20:13;;;;;;;3.23;3.03;;;;;20.80;101814.00;;;;2059180;28;20688;-56
2021/09/22 03:21:13;;;;;;;3.63;3.33;;;;;20.80;101820.00;;;;2067559;28;20233;-57
2021/09/22 03:22:13;;;;;;;3.40;3.10;;;;;20.80;101813.00;;;;2069843;28;20288;-56
2021/09/22 03:23:14;;;;;;;3.40;3.10;;;;;20.60;101814.00;;;;2070091;28;20230;-56
2021/09/22 03:24:14;;;;;;;4.83;3.40;;;;;20.80;101815.00;;;;2070302;28;20222;-57
2021/09/22 03:25:14;;;;;;;3.70;3.23;;;;;20.80;101777.00;;;;2070051;28;20218;-56
2021/09/22 03:26:15;;;;;;;2.60;2.40;;;;;20.80;101812.00;;;;2069757;28;20222;-56
2021/09/22 03:27:15;;;;;;;3.20;3.00;;;;;20.80;101803.00;;;;2070267;28;21029;-55
2021/09/22 03:28:15;;;;;;;2.87;2.60;;;;;20.80;101809.00;;;;2069948;28;20301;-56
2021/09/22 03:29:16;;;;;;;3.20;2.90;;;;;20.80;101810.00;;;;2067055;28;20221;-56
2021/09/22 03:30:16;;;;;;;3.23;2.93;;;;;20.80;101816.00;;;;2069977;28;20225;-56
2021/09/22 03:31:16;;;;;;;3.17;2.90;;;;;20.80;101812.00;;;;2069974;28;20213;-57
2021/09/22 03:32:17;;;;;;;3.43;3.10;;;;;20.80;101802.00;;;;2069788;28;20314;-55
2021/09/22 03:33:17;;;;;;;3.27;2.97;;;;;20.80;101806.00;;;;2069770;28;20692;-57
2021/09/22 03:34:18;;;;;;;3.37;3.07;;;;;20.80;101811.00;;;;2068757;28;20260;-55
2021/09/22 03:35:19;;;;;;;4.10;3.03;;;;;20.80;101808.00;;;;2070046;28;20222;-56
2021/09/22 03:36:19;;;;;;;3.80;3.10;;;;;20.80;101813.00;;;;2062563;28;20225;-56
2021/09/22 03:37:20;;;;;;;3.33;3.03;;;;;20.80;101812.00;;;;2060717;28;20500;-57
2021/09/22 03:38:21;;;;;;;3.80;3.50;;;;;20.90;101809.00;;;;2061912;28;20590;-57
2021/09/22 03:39:21;;;;;;;3.77;3.07;;;;;20.80;101817.00;;;;2060570;28;20266;-55
2021/09/22 03:40:22;;;;;;;4.13;2.90;;;;;20.80;101816.00;;;;2061452;28;20722;-56
2021/09/22 03:41:22;;;;;;;4.20;3.47;;;;;20.80;101817.00;;;;2062293;28;20242;-55
2021/09/22 03:42:22;;;;;;;3.27;2.97;;;;;20.80;101815.00;;;;2060619;28;20211;-57
2021/09/22 03:43:23;;;;;;;3.33;3.03;;;;;20.80;101820.00;;;;2061778;28;20215;-57
2021/09/22 03:44:25;;;;;;;3.07;2.80;;;;;20.80;101817.00;;;;2057608;28;20677;-57
2021/09/22 03:45:25;;;;;;;2.95;2.72;;;;;20.80;101820.00;;;;2058361;28;20477;-56
2021/09/22 03:46:26;;;;;;;3.20;2.90;;;;;20.80;101814.00;;;;2063246;28;20214;-57
2021/09/22 03:47:26;;;;;;;3.33;3.00;;;;;20.80;101819.00;;;;2061539;28;20223;-57
2021/09/22 03:48:26;;;;;;;3.00;2.80;;;;;20.80;101812.00;;;;2063644;28;20210;-56
2021/09/22 03:49:27;;;;;;;3.27;2.97;;;;;20.80;101816.00;;;;2062985;28;20269;-57
2021/09/22 03:50:27;;;;;;;3.40;3.03;;;;;20.80;101809.00;;;;2063107;28;20257;-57
2021/09/22 03:51:28;;;;;;;2.73;2.53;;;;;20.80;101818.00;;;;2063044;28;20223;-56
2021/09/22 03:52:28;;;;;;;3.47;3.17;;;;;20.80;101808.00;;;;2064082;28;20627;-56
2021/09/22 03:53:28;;;;;;;3.20;2.90;;;;;20.80;101814.00;;;;2064099;28;20207;-56
2021/09/22 03:54:29;;;;;;;3.23;2.97;;;;;20.80;101812.00;;;;2064014;28;20650;-57
2021/09/22 03:55:29;;;;;;;3.63;3.33;;;;;20.80;101804.00;;;;2068842;28;20215;-56
2021/09/22 03:56:29;;;;;;;3.70;2.83;;;;;20.80;101813.00;;;;2069978;28;20260;-57
2021/09/22 03:57:30;;;;;;;2.90;2.60;;;;;20.80;101804.00;;;;2063222;28;20211;-55
2021/09/22 03:58:30;;;;;;;3.40;3.10;;;;;20.80;101807.00;;;;2063641;28;20664;-60
2021/09/22 03:59:30;;;;;;;3.33;3.03;;;;;20.80;101802.00;;;;2062660;28;20211;-60
2021/09/22 04:00:31;;;;;;;3.53;3.23;;;;;20.80;101809.00;;;;2063583;28;20211;-59
2021/09/22 04:01:32;;;;;;;3.50;3.20;;;;;20.80;101767.00;;;;2063416;28;20210;-58
2021/09/22 04:02:32;;;;;;;3.40;3.10;;;;;20.80;101811.00;;;;2062950;28;20211;-57
2021/09/22 04:03:32;;;;;;;2.97;2.77;;;;;20.80;101813.00;;;;2064108;28;20731;-55
2021/09/22 04:04:33;;;;;;;3.53;3.10;;;;;20.80;101799.00;;;;2063867;28;20605;-57
2021/09/22 04:05:33;;;;;;;3.40;3.10;;;;;20.70;101811.00;;;;2061197;28;20219;-57
2021/09/22 04:06:34;;;;;;;3.30;2.80;;;;;20.80;101806.00;;;;2065082;28;20217;-55
2021/09/22 04:07:35;;;;;;;2.93;2.73;;;;;20.80;101804.00;;;;2063648;28;20269;-55
2021/09/22 04:08:35;;;;;;;3.17;2.87;;;;;20.80;101809.00;;;;2063824;28;21009;-55
2021/09/22 04:09:35;;;;;;;3.20;2.90;;;;;20.80;101807.00;;;;2062594;28;20265;-58
2021/09/22 04:10:36;;;;;;;3.43;3.03;;;;;20.80;101804.00;;;;2062989;28;20217;-57
2021/09/22 04:11:37;;;;;;;3.23;2.93;;;;;20.80;101797.00;;;;2062790;28;20254;-55
2021/09/22 04:12:37;;;;;;;2.90;2.70;;;;;20.80;101804.00;;;;2063252;28;20575;-56
2021/09/22 04:13:37;;;;;;;2.87;2.67;;;;;20.80;101804.00;;;;2065896;28;20218;-57
2021/09/22 04:14:38;;;;;;;3.93;3.30;;;;;20.80;101808.00;;;;2071592;28;20746;-58
2021/09/22 04:15:38;;;;;;;3.80;3.20;;;;;20.70;101806.00;;;;2071066;28;20219;-56
2021/09/22 04:16:39;;;;;;;2.77;2.57;;;;;20.80;101809.00;;;;2070962;28;20229;-55
2021/09/22 04:17:39;;;;;;;2.97;2.60;;;;;20.80;101816.00;;;;2071940;28;20720;-57
2021/09/22 04:18:39;;;;;;;3.63;3.30;;;;;20.70;101817.00;;;;2071760;28;20242;-55
2021/09/22 04:19:40;;;;;;;3.10;2.33;;;;;20.80;101814.00;;;;2070609;28;20210;-57
2021/09/22 04:20:40;;;;;;;3.33;3.07;;;;;20.70;101815.00;;;;2068546;28;20237;-57
2021/09/22 04:21:40;;;;;;;3.07;2.87;;;;;20.70;101811.00;;;;2066256;28;20226;-55
2021/09/22 04:22:42;;;;;;;4.07;3.10;;;;;20.70;101815.00;;;;2063648;28;20691;-57
2021/09/22 04:23:43;;;;;;;3.20;2.90;;;;;20.70;101816.00;;;;2063554;28;20219;-57
2021/09/22 04:24:43;;;;;;;2.90;2.63;;;;;20.70;101814.00;;;;2059264;28;20218;-58
2021/09/22 04:25:44;;;;;;;3.40;3.10;;;;;20.70;101816.00;;;;2063123;28;20211;-56
2021/09/22 04:26:44;;;;;;;3.83;2.90;;;;;20.70;101817.00;;;;2063790;28;20276;-56
2021/09/22 04:27:45;;;;;;;2.90;2.70;;;;;20.70;101807.00;;;;2063593;28;20215;-55
2021/09/22 04:28:45;;;;;;;3.37;3.07;;;;;20.70;101810.00;;;;2061646;28;20211;-56
2021/09/22 04:29:45;;;;;;;3.43;3.13;;;;;20.70;101806.00;;;;2062109;28;20207;-56
2021/09/22 04:30:46;;;;;;;3.00;2.80;;;;;20.70;101815.00;;;;2063447;28;20847;-56
2021/09/22 04:31:46;;;;;;;3.20;2.90;;;;;20.70;101821.00;;;;2063686;28;20557;-58
2021/09/22 04:32:47;;;;;;;3.53;3.23;;;;;20.70;101816.00;;;;2063850;28;20206;-56
2021/09/22 04:33:47;;;;;;;3.40;3.13;;;;;20.70;101820.00;;;;2070740;28;20293;-55
2021/09/22 04:34:47;;;;;;;2.90;2.60;;;;;20.70;101819.00;;;;2071537;28;20209;-57
2021/09/22 04:35:48;;;;;;;2.97;2.30;;;;;20.70;101823.00;;;;2068295;28;20215;-57
2021/09/22 04:36:48;;;;;;;3.57;3.27;;;;;20.70;101816.00;;;;2060748;28;20219;-57
2021/09/22 04:37:49;;;;;;;3.47;3.00;;;;;20.70;101822.00;;;;2063559;28;20596;-55
2021/09/22 04:38:49;;;;;;;3.70;2.90;;;;;20.70;101809.00;;;;2062207;28;20656;-56
2021/09/22 04:39:52;;;;;;;3.30;3.00;;;;;20.70;101818.00;;;;2063539;28;20217;-57
2021/09/22 04:40:52;;;;;;;3.70;2.70;;;;;20.70;101801.00;;;;2063495;28;20297;-56
2021/09/22 04:41:52;;;;;;;3.23;2.93;;;;;20.70;101819.00;;;;2063723;28;20678;-57
2021/09/22 04:42:53;;;;;;;3.53;2.80;;;;;20.70;101811.00;;;;2063302;28;20274;-57
2021/09/22 04:43:53;;;;;;;5.67;3.23;;;;;20.60;101825.00;;;;2063486;28;20215;-56
2021/09/22 04:44:54;;;;;;;4.10;2.60;;;;;20.60;101823.00;;;;2063022;28;20219;-56
2021/09/22 04:45:55;;;;;;;4.37;2.67;;;;;20.60;101815.00;;;;2063246;28;20457;-56
2021/09/22 04:46:56;;;;;;;3.50;2.85;;;;;20.70;101816.00;;;;2063578;28;20680;-57
2021/09/22 04:47:57;;;;;;;6.27;2.40;;;;;20.70;101819.00;;;;2062921;28;20313;-56
2021/09/22 04:48:57;;;;;;;3.63;2.30;;;;;20.70;101812.00;;;;2061748;28;20854;-57
2021/09/22 04:49:58;;;;;;;2.83;2.63;;;;;20.70;101817.00;;;;2062455;28;20293;-55
2021/09/22 04:50:58;;;;;;;5.93;2.70;;;;;20.70;101819.00;;;;2062654;28;20668;-56
2021/09/22 04:51:58;;;;;;;3.40;2.40;;;;;20.70;101814.00;;;;2062833;28;20605;-57
2021/09/22 04:52:59;;;;;;;2.90;2.40;;;;;20.80;101817.00;;;;2063361;28;20218;-57
2021/09/22 04:53:59;;;;;;;3.87;2.40;;;;;20.80;101780.00;;;;2063049;28;20223;-57
2021/09/22 04:54:59;;;;;;;3.00;2.33;;;;;20.80;101810.00;;;;2063345;28;20675;-55
2021/09/22 04:56:00;;;;;;;2.90;2.50;;;;;20.80;101816.00;;;;2062242;28;20571;-57
2021/09/22 04:57:00;;;;;;;6.20;2.87;;;;;20.80;101815.00;;;;2063284;28;20246;-57
2021/09/22 04:58:01;;;;;;;5.80;2.60;;;;;20.70;101806.00;;;;2062489;28;20218;-57
2021/09/22 04:59:02;;;;;;;3.75;2.25;;;;;20.80;101814.00;;;;2065720;28;20206;-57
2021/09/22 05:00:03;;;;;;;3.97;2.30;;;;;20.70;101814.00;;;;2071269;28;20214;-56